Time;durP1;ratioP1;P1;durP2;ratioP2;P2;SDS_P1;SDS_P2;PMS_P1;PMS_P2;Temp;Humidity;BMP_temperature;BMP_pressure;BME280_temperature;BME280_humidity;BME280_pressure;Samples;Min_cycle;Max_cycle;Signal;HPM_P1;HPM_P2
2021/11/27 00:00:18;;;;;;;23.27;17.80;;;4.50;99.90;;;;;;5054373;28;20192;-71
2021/11/27 00:02:46;;;;;;;22.60;15.95;;;4.50;99.90;;;;;;5055381;28;20219;-70
2021/11/27 00:05:14;;;;;;;25.70;17.05;;;4.40;99.90;;;;;;5074304;28;20254;-69
2021/11/27 00:07:42;;;;;;;22.52;14.98;;;4.40;99.90;;;;;;5056204;28;20227;-70
2021/11/27 00:10:13;;;;;;;21.35;16.13;;;4.40;99.90;;;;;;5058987;28;20258;-71
2021/11/27 00:12:40;;;;;;;27.95;16.83;;;4.40;99.90;;;;;;5062616;28;20210;-69
2021/11/27 00:15:13;;;;;;;24.15;15.30;;;4.40;99.90;;;;;;5063782;28;20302;-70
2021/11/27 00:17:42;;;;;;;23.00;16.38;;;4.50;99.90;;;;;;5065871;28;20246;-69
2021/11/27 00:20:13;;;;;;;19.35;14.45;;;4.50;99.90;;;;;;5066684;28;20666;-69
2021/11/27 00:22:40;;;;;;;25.52;16.63;;;4.50;99.90;;;;;;5059810;28;20240;-70
2021/11/27 00:25:15;;;;;;;23.05;16.38;;;4.50;99.90;;;;;;5057824;28;20283;-70
2021/11/27 00:27:43;;;;;;;21.35;15.13;;;4.50;99.90;;;;;;5060173;28;20197;-70
2021/11/27 00:30:14;;;;;;;20.83;15.38;;;4.50;99.90;;;;;;5062301;28;20195;-71
2021/11/27 00:32:42;;;;;;;22.75;16.38;;;4.50;99.90;;;;;;5073386;28;20294;-70
2021/11/27 00:35:10;;;;;;;24.88;15.20;;;4.50;99.90;;;;;;5064860;28;20224;-72
2021/11/27 00:37:39;;;;;;;27.80;16.67;;;4.50;99.90;;;;;;5053585;28;20195;-71
2021/11/27 00:40:10;;;;;;;25.00;15.50;;;4.50;99.90;;;;;;5061054;28;20577;-70
2021/11/27 00:42:37;;;;;;;25.35;15.75;;;4.50;99.90;;;;;;5073802;28;20274;-71
2021/11/27 00:45:10;;;;;;;22.92;15.30;;;4.40;99.90;;;;;;5073043;28;20710;-71
2021/11/27 00:47:38;;;;;;;21.10;14.90;;;4.40;99.90;;;;;;5073324;28;20301;-70
2021/11/27 00:50:08;;;;;;;22.55;15.95;;;4.50;99.90;;;;;;5072957;28;20274;-70
2021/11/27 00:52:35;;;;;;;24.20;17.40;;;4.50;99.90;;;;;;5073194;28;20301;-72
2021/11/27 00:55:04;;;;;;;18.42;14.45;;;4.50;99.90;;;;;;5072877;28;20310;-72
2021/11/27 00:57:30;;;;;;;22.55;16.20;;;4.50;99.90;;;;;;5073290;28;20191;-70
2021/11/27 00:59:59;;;;;;;20.15;14.75;;;4.50;99.90;;;;;;5072440;28;20217;-70
2021/11/27 01:02:26;;;;;;;23.63;15.43;;;4.60;99.90;;;;;;5071359;28;20195;-70
2021/11/27 01:04:53;;;;;;;23.02;15.57;;;4.60;99.90;;;;;;5068547;28;20369;-71
2021/11/27 01:07:21;;;;;;;22.10;17.45;;;4.50;99.90;;;;;;5070909;28;20234;-71
2021/11/27 01:09:48;;;;;;;20.05;15.40;;;4.50;99.90;;;;;;5072129;28;20202;-71
2021/11/27 01:12:15;;;;;;;20.13;16.25;;;4.50;99.90;;;;;;5072443;28;20229;-71
2021/11/27 01:14:42;;;;;;;20.50;15.65;;;4.50;99.90;;;;;;5072796;28;20305;-72
2021/11/27 01:17:11;;;;;;;22.55;15.18;;;4.50;99.90;;;;;;5072548;28;20217;-72
2021/11/27 01:19:39;;;;;;;24.90;17.10;;;4.50;99.90;;;;;;5072193;28;20268;-71
2021/11/27 01:22:11;;;;;;;24.55;15.93;;;4.50;99.90;;;;;;5075198;28;20193;-69
2021/11/27 01:24:40;;;;;;;22.15;15.63;;;4.50;99.90;;;;;;5072275;28;20280;-71
2021/11/27 01:27:08;;;;;;;21.77;14.82;;;4.50;99.90;;;;;;5072795;28;20285;-71
2021/11/27 01:29:35;;;;;;;22.10;16.92;;;4.40;99.90;;;;;;5068016;28;20195;-71
2021/11/27 01:32:02;;;;;;;23.70;17.20;;;4.50;99.90;;;;;;5067884;28;20229;-70
2021/11/27 01:34:29;;;;;;;26.98;16.80;;;4.40;99.90;;;;;;5058158;28;20314;-70
2021/11/27 01:36:56;;;;;;;25.38;17.33;;;4.40;99.90;;;;;;5071614;28;20293;-69
2021/11/27 01:39:23;;;;;;;26.88;16.00;;;4.40;99.90;;;;;;5072607;28;20665;-69
2021/11/27 01:41:52;;;;;;;24.25;16.33;;;4.40;99.90;;;;;;5066290;28;20537;-70
2021/11/27 01:44:19;;;;;;;25.80;17.27;;;4.50;99.90;;;;;;5058035;28;20298;-72
2021/11/27 01:46:46;;;;;;;29.20;17.52;;;4.40;99.90;;;;;;5067352;28;20226;-70
2021/11/27 01:49:13;;;;;;;25.52;17.15;;;4.30;99.90;;;;;;5065437;28;20566;-71
2021/11/27 01:51:41;;;;;;;23.10;16.50;;;4.30;99.90;;;;;;5064804;28;20199;-69
2021/11/27 01:54:10;;;;;;;28.67;17.38;;;4.30;99.90;;;;;;5060745;28;20246;-70
2021/11/27 01:56:41;;;;;;;29.23;17.67;;;4.40;99.90;;;;;;5072467;28;20217;-70
2021/11/27 01:59:10;;;;;;;27.52;18.88;;;4.40;99.90;;;;;;5065114;28;20199;-71
2021/11/27 02:01:40;;;;;;;25.70;17.70;;;4.40;99.90;;;;;;5064682;28;20329;-71
2021/11/27 02:04:09;;;;;;;24.40;17.42;;;4.40;99.90;;;;;;5062816;28;20768;-71
2021/11/27 02:06:38;;;;;;;28.10;18.83;;;4.40;99.90;;;;;;5072394;28;20210;-72
2021/11/27 02:09:07;;;;;;;29.52;18.13;;;4.50;99.90;;;;;;5061854;28;20770;-72
2021/11/27 02:11:36;;;;;;;26.63;19.13;;;4.50;99.90;;;;;;5075183;28;20297;-71
2021/11/27 02:14:04;;;;;;;28.38;16.80;;;4.50;99.90;;;;;;5065132;28;20335;-71
2021/11/27 02:16:33;;;;;;;30.15;19.65;;;4.50;99.90;;;;;;5057128;28;20291;-72
2021/11/27 02:19:00;;;;;;;30.00;19.13;;;4.50;99.90;;;;;;5065532;28;20561;-71
2021/11/27 02:21:29;;;;;;;24.80;17.02;;;4.50;99.90;;;;;;5056957;28;20195;-69
2021/11/27 02:23:56;;;;;;;21.88;16.70;;;4.50;99.90;;;;;;5054712;28;20317;-70
2021/11/27 02:26:26;;;;;;;27.38;17.08;;;4.50;99.90;;;;;;5057777;28;20214;-71
2021/11/27 02:28:57;;;;;;;24.25;17.55;;;4.50;99.90;;;;;;5068298;28;20290;-70
2021/11/27 02:31:24;;;;;;;24.95;18.80;;;4.60;99.90;;;;;;5068104;28;20217;-72
2021/11/27 02:33:55;;;;;;;24.23;16.02;;;4.60;99.90;;;;;;5068003;28;20210;-70
2021/11/27 02:36:23;;;;;;;26.77;16.05;;;4.60;99.90;;;;;;5074526;28;20226;-70
2021/11/27 02:38:51;;;;;;;23.00;16.05;;;4.60;99.90;;;;;;5074350;28;20229;-72
2021/11/27 02:41:18;;;;;;;21.88;15.90;;;4.60;99.90;;;;;;5073877;28;20223;-71
2021/11/27 02:43:45;;;;;;;23.50;16.50;;;4.50;99.90;;;;;;5061202;28;20198;-72
2021/11/27 02:46:12;;;;;;;19.38;15.18;;;4.60;99.90;;;;;;5058192;28;20199;-72
2021/11/27 02:48:39;;;;;;;25.20;15.80;;;4.50;99.90;;;;;;5062741;28;20278;-70
2021/11/27 02:51:06;;;;;;;24.80;18.08;;;4.50;99.90;;;;;;5072198;28;20286;-72
2021/11/27 02:53:33;;;;;;;21.95;16.92;;;4.50;99.90;;;;;;5056050;28;20267;-71
2021/11/27 02:56:04;;;;;;;21.33;15.82;;;4.60;99.90;;;;;;5073500;28;20230;-72
2021/11/27 02:58:31;;;;;;;21.88;15.65;;;4.50;99.90;;;;;;5059585;28;20283;-70
2021/11/27 03:01:01;;;;;;;17.70;12.80;;;4.60;99.90;;;;;;5071715;28;20263;-71
2021/11/27 03:03:28;;;;;;;21.50;15.52;;;4.50;99.90;;;;;;5072717;28;20226;-71
2021/11/27 03:05:55;;;;;;;22.95;13.38;;;4.50;99.90;;;;;;5072068;28;20282;-71
2021/11/27 03:08:22;;;;;;;19.02;14.77;;;4.50;99.90;;;;;;5085142;28;20673;-73
2021/11/27 03:10:49;;;;;;;20.55;14.95;;;4.50;99.90;;;;;;5078796;28;20211;-72
2021/11/27 03:13:24;;;;;;;19.85;14.63;;;4.60;99.90;;;;;;5060211;28;20211;-71
2021/11/27 03:15:52;;;;;;;21.20;14.27;;;4.50;99.90;;;;;;5015776;28;1158160;-73
2021/11/27 03:18:18;;;;;;;18.70;13.80;;;4.50;99.90;;;;;;5073851;28;20286;-73
2021/11/27 03:20:46;;;;;;;18.60;14.32;;;4.60;99.90;;;;;;5064556;28;20199;-71
2021/11/27 03:23:14;;;;;;;20.00;14.07;;;4.60;99.90;;;;;;5064665;28;20278;-70
2021/11/27 03:25:41;;;;;;;25.90;15.48;;;4.60;99.90;;;;;;5073411;28;20706;-73
2021/11/27 03:28:08;;;;;;;19.20;14.50;;;4.60;99.90;;;;;;5067555;28;20286;-71
2021/11/27 03:30:37;;;;;;;20.95;14.63;;;4.50;99.90;;;;;;5064679;28;20210;-73
2021/11/27 03:33:04;;;;;;;21.00;15.75;;;4.60;99.90;;;;;;5068026;28;20211;-71
2021/11/27 03:35:32;;;;;;;22.63;14.18;;;4.60;99.90;;;;;;5069817;28;20221;-72
2021/11/27 03:37:59;;;;;;;19.58;14.98;;;4.60;99.90;;;;;;5068163;28;20270;-72
2021/11/27 03:40:27;;;;;;;19.75;14.73;;;4.60;99.90;;;;;;5063240;28;20278;-71
2021/11/27 03:42:56;;;;;;;18.73;14.52;;;4.60;99.90;;;;;;5065967;28;20286;-71
2021/11/27 03:45:25;;;;;;;27.58;15.15;;;4.60;99.90;;;;;;5072069;28;20582;-73
2021/11/27 03:48:11;;;;;;;18.67;13.57;;;4.60;99.90;;;;;;5056496;28;20217;-70
2021/11/27 03:50:41;;;;;;;20.85;14.75;;;4.60;99.90;;;;;;5066597;28;20282;-71
2021/11/27 03:53:09;;;;;;;18.85;14.48;;;4.60;99.90;;;;;;5065791;28;20211;-73
2021/11/27 03:55:36;;;;;;;20.92;15.00;;;4.60;99.90;;;;;;5061539;28;20289;-72
2021/11/27 03:58:04;;;;;;;21.23;14.20;;;4.60;99.90;;;;;;5066599;28;20210;-72
2021/11/27 04:00:32;;;;;;;22.95;13.90;;;4.60;99.90;;;;;;5072561;28;20290;-70
2021/11/27 04:03:01;;;;;;;21.33;12.77;;;4.60;99.90;;;;;;5069991;28;20262;-71
2021/11/27 04:05:28;;;;;;;22.00;14.50;;;4.60;99.90;;;;;;5066101;28;20231;-71
2021/11/27 04:07:56;;;;;;;20.80;13.77;;;4.60;99.90;;;;;;5062205;28;20208;-72
2021/11/27 04:10:24;;;;;;;22.92;14.30;;;4.50;99.90;;;;;;5059721;28;20253;-72
2021/11/27 04:12:51;;;;;;;19.25;14.00;;;4.50;99.90;;;;;;5055856;28;20223;-71
2021/11/27 04:15:19;;;;;;;22.38;13.68;;;4.50;99.90;;;;;;5071531;28;20215;-74
2021/11/27 04:17:46;;;;;;;18.67;13.55;;;4.50;99.90;;;;;;5062783;28;20250;-71
2021/11/27 04:20:14;;;;;;;17.20;12.55;;;4.50;99.90;;;;;;5059273;28;20227;-71
2021/11/27 04:22:41;;;;;;;16.90;12.50;;;4.50;99.90;;;;;;5061728;28;20611;-72
2021/11/27 04:25:09;;;;;;;17.15;12.88;;;4.50;99.90;;;;;;5062731;28;20355;-73
2021/11/27 04:27:37;;;;;;;22.75;15.00;;;4.60;99.90;;;;;;5054845;28;20575;-72
2021/11/27 04:30:06;;;;;;;26.73;13.45;;;4.70;99.90;;;;;;5066867;28;20207;-72
2021/11/27 04:32:34;;;;;;;18.75;12.32;;;4.70;99.90;;;;;;5072792;28;20289;-72
2021/11/27 04:35:01;;;;;;;20.25;13.75;;;4.70;99.90;;;;;;5065335;28;20234;-72
2021/11/27 04:37:29;;;;;;;15.30;11.07;;;4.70;99.90;;;;;;5067810;28;20286;-73
2021/11/27 04:39:56;;;;;;;17.75;12.45;;;4.70;99.90;;;;;;5057265;28;20235;-72
2021/11/27 04:42:23;;;;;;;20.10;13.10;;;4.80;99.90;;;;;;5065379;28;20195;-71
2021/11/27 04:44:50;;;;;;;16.48;11.60;;;4.90;99.90;;;;;;5057537;28;20274;-73
2021/11/27 04:47:17;;;;;;;20.95;11.40;;;4.80;99.90;;;;;;5060064;28;20650;-71
2021/11/27 04:49:46;;;;;;;19.02;14.25;;;4.80;99.90;;;;;;5057514;28;20285;-72
2021/11/27 04:52:12;;;;;;;20.27;13.68;;;4.80;99.90;;;;;;5066962;28;20290;-72
2021/11/27 04:54:41;;;;;;;17.42;12.75;;;4.80;99.90;;;;;;5058672;28;20247;-71
2021/11/27 04:57:08;;;;;;;18.23;12.48;;;4.90;99.90;;;;;;5060227;28;20196;-71
2021/11/27 04:59:37;;;;;;;15.00;12.05;;;4.90;99.90;;;;;;5067121;28;20297;-73
2021/11/27 05:02:04;;;;;;;15.95;12.38;;;4.90;99.90;;;;;;5065299;28;20294;-73
2021/11/27 05:04:31;;;;;;;18.95;13.40;;;4.90;99.90;;;;;;5058964;28;20310;-71
2021/11/27 05:06:58;;;;;;;17.83;12.85;;;4.90;99.90;;;;;;5071737;28;20203;-73
2021/11/27 05:09:25;;;;;;;15.73;11.57;;;4.90;99.90;;;;;;5058199;28;20195;-71
2021/11/27 05:11:53;;;;;;;18.23;13.40;;;4.90;99.90;;;;;;5065501;28;20231;-71
2021/11/27 05:14:20;;;;;;;17.23;12.63;;;4.90;99.90;;;;;;5071166;28;20230;-73
2021/11/27 05:16:47;;;;;;;18.30;13.98;;;4.90;99.90;;;;;;5064678;28;20254;-73
2021/11/27 05:19:14;;;;;;;18.95;12.25;;;4.90;99.90;;;;;;5059926;28;20238;-71
2021/11/27 05:21:42;;;;;;;14.32;11.70;;;4.90;99.90;;;;;;5060558;28;20290;-73
2021/11/27 05:24:09;;;;;;;15.20;11.50;;;4.90;99.90;;;;;;5056711;28;20645;-70
2021/11/27 05:26:36;;;;;;;20.23;12.10;;;4.90;99.90;;;;;;5067739;28;20286;-71
2021/11/27 05:29:05;;;;;;;16.10;11.20;;;4.90;99.90;;;;;;5067290;28;20210;-73
2021/11/27 05:31:32;;;;;;;21.65;13.43;;;4.90;99.90;;;;;;5063909;28;20235;-72
2021/11/27 05:34:20;;;;;;;16.42;11.40;;;4.90;99.90;;;;;;5063583;28;20223;-70
2021/11/27 05:36:47;;;;;;;15.65;11.30;;;4.90;99.90;;;;;;5071893;28;20195;-72
2021/11/27 05:39:14;;;;;;;15.57;11.23;;;4.90;99.90;;;;;;5069023;28;20198;-70
2021/11/27 05:41:41;;;;;;;16.10;11.50;;;4.90;99.90;;;;;;5057738;28;20199;-71
2021/11/27 05:44:10;;;;;;;18.58;12.07;;;4.90;99.90;;;;;;5069596;28;20586;-70
2021/11/27 05:46:39;;;;;;;18.13;11.65;;;4.90;99.90;;;;;;5067934;28;20195;-73
2021/11/27 05:49:05;;;;;;;20.15;12.75;;;5.00;99.90;;;;;;5076578;28;20569;-72
2021/11/27 05:51:40;;;;;;;14.05;11.85;;;5.00;99.90;;;;;;5076017;28;20195;-71
2021/11/27 05:54:07;;;;;;;19.35;11.10;;;5.00;99.90;;;;;;5067204;28;20232;-72
2021/11/27 05:56:34;;;;;;;15.07;11.27;;;5.00;99.90;;;;;;5062119;28;20200;-71
2021/11/27 05:59:01;;;;;;;14.82;11.40;;;5.00;99.90;;;;;;5066335;28;20199;-71
2021/11/27 06:01:29;;;;;;;16.33;12.20;;;5.10;99.90;;;;;;5069693;28;20203;-72
2021/11/27 06:03:56;;;;;;;15.05;10.65;;;5.10;99.90;;;;;;5075513;28;20252;-72
2021/11/27 06:06:23;;;;;;;19.42;12.52;;;5.10;99.90;;;;;;5073388;28;20278;-72
2021/11/27 06:08:50;;;;;;;19.70;12.48;;;5.00;99.90;;;;;;5070591;28;20211;-73
2021/11/27 06:11:17;;;;;;;14.73;11.20;;;5.00;99.90;;;;;;5061333;28;20331;-72
2021/11/27 06:13:44;;;;;;;18.05;12.70;;;5.00;99.90;;;;;;5063254;28;20313;-71
2021/11/27 06:16:11;;;;;;;17.02;13.10;;;5.00;99.90;;;;;;5062033;28;20583;-73
2021/11/27 06:18:39;;;;;;;15.27;12.38;;;5.00;99.90;;;;;;5064330;28;20286;-71
2021/11/27 06:21:08;;;;;;;17.30;12.07;;;5.00;99.90;;;;;;5069421;28;20544;-73
2021/11/27 06:23:35;;;;;;;16.23;11.43;;;5.00;99.90;;;;;;5067990;28;20240;-73
2021/11/27 06:26:02;;;;;;;17.17;11.52;;;5.00;99.90;;;;;;5068627;28;20286;-73
2021/11/27 06:28:29;;;;;;;18.67;12.63;;;5.10;99.90;;;;;;5066461;28;20213;-72
2021/11/27 06:30:56;;;;;;;16.25;12.65;;;5.10;99.90;;;;;;5056538;28;20562;-70
2021/11/27 06:33:23;;;;;;;18.83;13.32;;;5.00;99.90;;;;;;5061487;28;20294;-72
2021/11/27 06:35:52;;;;;;;17.20;12.23;;;4.90;99.90;;;;;;5063440;28;20259;-72
2021/11/27 06:38:21;;;;;;;18.48;13.30;;;4.90;99.90;;;;;;5056790;28;20208;-70
2021/11/27 06:40:48;;;;;;;23.83;16.73;;;4.80;99.90;;;;;;5066036;28;20318;-72
2021/11/27 06:43:15;;;;;;;19.27;13.85;;;4.80;99.90;;;;;;5066907;28;20198;-71
2021/11/27 06:45:42;;;;;;;21.10;13.55;;;4.80;99.90;;;;;;5060921;28;20313;-71
2021/11/27 06:48:10;;;;;;;20.52;13.40;;;4.70;99.90;;;;;;5057230;28;20611;-70
2021/11/27 06:50:37;;;;;;;14.90;12.90;;;4.80;99.90;;;;;;5068482;28;20278;-70
2021/11/27 06:53:06;;;;;;;22.40;13.35;;;4.80;99.90;;;;;;5061597;28;20566;-70
2021/11/27 06:55:33;;;;;;;18.33;13.32;;;4.80;99.90;;;;;;5056866;28;20701;-70
2021/11/27 06:58:00;;;;;;;17.95;12.55;;;4.70;99.90;;;;;;5057693;28;20219;-69
2021/11/27 07:00:28;;;;;;;21.38;12.82;;;4.80;99.90;;;;;;5062958;28;20289;-70
2021/11/27 07:02:55;;;;;;;19.63;13.00;;;4.80;99.90;;;;;;5061794;28;20210;-69
2021/11/27 07:05:22;;;;;;;18.42;13.82;;;4.80;99.90;;;;;;5068235;28;20225;-71
2021/11/27 07:07:49;;;;;;;18.75;13.88;;;4.80;99.90;;;;;;5065438;28;20199;-70
2021/11/27 07:10:17;;;;;;;20.95;15.50;;;4.80;99.90;;;;;;5059342;28;20209;-72
2021/11/27 07:12:44;;;;;;;20.25;13.52;;;4.80;99.90;;;;;;5060079;28;20229;-71
2021/11/27 07:15:12;;;;;;;23.60;14.35;;;4.80;99.90;;;;;;5068372;28;20227;-70
2021/11/27 07:17:40;;;;;;;20.42;14.88;;;4.80;99.90;;;;;;5057109;28;20211;-72
2021/11/27 07:20:11;;;;;;;23.98;13.52;;;4.80;99.90;;;;;;5068002;28;20297;-70
2021/11/27 07:22:38;;;;;;;18.88;14.95;;;4.80;99.90;;;;;;5063383;28;20609;-71
2021/11/27 07:25:06;;;;;;;15.50;11.77;;;4.80;99.90;;;;;;5065458;28;20229;-71
2021/11/27 07:27:34;;;;;;;16.92;13.15;;;4.70;99.90;;;;;;5065526;28;20211;-72
2021/11/27 07:30:01;;;;;;;21.30;14.68;;;4.70;99.90;;;;;;5072522;28;20671;-69
2021/11/27 07:32:28;;;;;;;16.42;11.75;;;4.80;99.90;;;;;;5068465;28;20205;-72
2021/11/27 07:34:55;;;;;;;17.23;12.23;;;4.70;99.90;;;;;;5059659;28;20651;-72
2021/11/27 07:37:22;;;;;;;22.00;12.45;;;4.70;99.90;;;;;;5066966;28;20217;-70
2021/11/27 07:39:50;;;;;;;19.25;14.43;;;4.70;99.90;;;;;;5064039;28;20565;-72
2021/11/27 07:42:16;;;;;;;21.45;13.45;;;4.70;99.90;;;;;;5066527;28;20203;-72
2021/11/27 07:44:45;;;;;;;17.73;12.15;;;4.70;99.90;;;;;;5065998;28;20219;-72
2021/11/27 07:47:12;;;;;;;19.02;13.48;;;4.70;99.90;;;;;;5058551;28;20196;-73
2021/11/27 07:49:38;;;;;;;15.95;12.45;;;4.80;99.90;;;;;;5058975;28;20545;-71
2021/11/27 07:52:06;;;;;;;18.92;11.82;;;4.70;99.90;;;;;;5066036;28;20241;-71
2021/11/27 07:54:33;;;;;;;14.50;12.32;;;4.70;99.90;;;;;;5067610;28;20226;-72
2021/11/27 07:57:01;;;;;;;17.73;12.50;;;4.70;99.90;;;;;;5058931;28;20195;-73
2021/11/27 07:59:29;;;;;;;15.88;12.75;;;4.80;99.90;;;;;;5061889;28;20278;-75
2021/11/27 08:01:57;;;;;;;19.02;11.45;;;4.80;99.90;;;;;;5063387;28;20206;-73
2021/11/27 08:04:24;;;;;;;17.35;12.48;;;4.80;99.90;;;;;;5064024;28;20215;-73
2021/11/27 08:06:51;;;;;;;18.63;12.23;;;4.80;99.90;;;;;;5066638;28;20290;-73
2021/11/27 08:09:18;;;;;;;17.48;11.18;;;4.90;99.90;;;;;;5069480;28;20302;-74
2021/11/27 08:11:45;;;;;;;15.60;12.00;;;5.00;99.90;;;;;;5068754;28;20286;-73
2021/11/27 08:14:14;;;;;;;16.40;12.20;;;5.00;99.90;;;;;;5069205;28;20227;-73
2021/11/27 08:16:41;;;;;;;15.50;11.00;;;5.10;99.90;;;;;;5071276;28;20211;-74
2021/11/27 08:19:09;;;;;;;19.27;13.02;;;5.00;99.90;;;;;;5069871;28;20290;-76
2021/11/27 08:21:36;;;;;;;13.05;10.90;;;5.00;99.90;;;;;;5063510;28;20569;-73
2021/11/27 08:24:04;;;;;;;17.95;12.95;;;5.00;99.90;;;;;;5063541;28;20228;-73
2021/11/27 08:26:31;;;;;;;15.25;11.50;;;5.00;99.90;;;;;;5062061;28;20292;-74
2021/11/27 08:28:58;;;;;;;15.30;9.93;;;5.00;99.90;;;;;;5063346;28;20226;-75
2021/11/27 08:31:25;;;;;;;13.20;11.65;;;5.10;99.90;;;;;;5070400;28;20195;-73
2021/11/27 08:33:52;;;;;;;12.40;10.40;;;5.10;99.90;;;;;;5063080;28;20211;-71
2021/11/27 08:36:21;;;;;;;12.40;9.95;;;5.10;99.90;;;;;;5062176;28;20375;-72
2021/11/27 08:38:48;;;;;;;14.27;10.90;;;5.10;99.90;;;;;;5062591;28;20290;-76
2021/11/27 08:41:15;;;;;;;13.57;12.18;;;5.10;99.90;;;;;;5064538;28;20199;-74
2021/11/27 08:43:42;;;;;;;14.02;11.02;;;5.00;99.90;;;;;;5064710;28;20195;-74
2021/11/27 08:46:09;;;;;;;12.45;10.23;;;5.20;99.90;;;;;;5062586;28;20203;-76
2021/11/27 08:48:37;;;;;;;14.50;11.63;;;5.20;99.90;;;;;;5057031;28;20210;-74
2021/11/27 08:51:06;;;;;;;14.55;11.05;;;5.20;99.90;;;;;;5065296;28;20215;-71
2021/11/27 08:53:34;;;;;;;13.30;9.63;;;5.20;99.90;;;;;;5060172;28;20662;-73
2021/11/27 08:56:01;;;;;;;14.40;10.85;;;5.30;99.90;;;;;;5061386;28;20740;-74
2021/11/27 08:58:28;;;;;;;12.07;9.75;;;5.20;99.90;;;;;;5060117;28;20615;-73
2021/11/27 09:00:55;;;;;;;12.75;9.45;;;5.20;99.90;;;;;;5069544;28;20546;-71
2021/11/27 09:03:22;;;;;;;13.60;11.05;;;5.20;99.90;;;;;;5059249;28;20195;-74
2021/11/27 09:05:50;;;;;;;14.93;10.73;;;5.20;99.90;;;;;;5071436;28;20255;-73
2021/11/27 09:08:17;;;;;;;13.63;11.18;;;5.20;99.90;;;;;;5071651;28;20203;-75
2021/11/27 09:10:45;;;;;;;13.05;10.25;;;5.20;99.90;;;;;;5072330;28;20230;-75
2021/11/27 09:13:13;;;;;;;11.57;9.93;;;5.30;99.90;;;;;;5067992;28;20215;-75
2021/11/27 09:15:40;;;;;;;12.45;10.35;;;5.40;99.90;;;;;;5076618;28;20647;-77
2021/11/27 09:18:09;;;;;;;10.85;9.52;;;5.40;99.90;;;;;;5060066;28;20733;-77
2021/11/27 09:20:36;;;;;;;11.02;9.10;;;5.40;99.90;;;;;;5064621;28;20211;-75
2021/11/27 09:23:04;;;;;;;11.20;9.75;;;5.50;99.90;;;;;;5070995;28;20208;-74
2021/11/27 09:25:31;;;;;;;10.88;9.27;;;5.50;99.90;;;;;;5068458;28;20276;-73
2021/11/27 09:28:01;;;;;;;9.70;8.23;;;5.60;99.90;;;;;;5068841;28;20307;-76
2021/11/27 09:30:30;;;;;;;10.35;8.77;;;5.60;99.90;;;;;;5072034;28;20278;-72
2021/11/27 09:32:58;;;;;;;10.43;9.40;;;5.70;99.90;;;;;;5070274;28;20465;-76
2021/11/27 09:35:26;;;;;;;11.00;9.70;;;5.70;99.90;;;;;;5067446;28;20539;-74
2021/11/27 09:37:53;;;;;;;9.88;8.65;;;5.70;99.90;;;;;;5071240;28;20204;-74
2021/11/27 09:40:20;;;;;;;9.13;8.23;;;5.70;99.90;;;;;;5073010;28;20207;-76
2021/11/27 09:42:51;;;;;;;10.77;9.70;;;5.90;99.90;;;;;;5068394;28;20199;-74
2021/11/27 09:45:23;;;;;;;9.68;8.68;;;5.90;99.90;;;;;;5071727;28;20258;-73
2021/11/27 09:47:52;;;;;;;8.68;7.88;;;5.90;99.90;;;;;;5066258;28;20410;-72
2021/11/27 09:50:21;;;;;;;8.60;7.30;;;5.90;99.90;;;;;;5067165;28;20204;-75
2021/11/27 09:52:49;;;;;;;9.65;8.65;;;5.80;99.90;;;;;;5065231;28;20309;-79
2021/11/27 09:55:17;;;;;;;10.80;9.80;;;5.80;99.90;;;;;;5072198;28;20692;-77
2021/11/27 09:57:45;;;;;;;10.43;8.25;;;5.70;99.90;;;;;;5070345;28;20314;-77
2021/11/27 10:00:14;;;;;;;9.50;8.50;;;5.70;99.90;;;;;;5072011;28;20265;-75
2021/11/27 10:02:54;;;;;;;7.38;6.57;;;5.60;99.90;;;;;;5075817;28;20203;-75
2021/11/27 10:05:23;;;;;;;9.85;8.20;;;5.70;99.90;;;;;;5076191;28;20230;-77
2021/11/27 10:07:52;;;;;;;9.07;8.15;;;5.70;99.90;;;;;;5074130;28;20272;-78
2021/11/27 10:10:19;;;;;;;9.38;8.32;;;5.80;99.90;;;;;;5069187;28;20205;-76
2021/11/27 10:12:48;;;;;;;9.57;7.95;;;5.80;99.90;;;;;;5062384;28;20301;-77
2021/11/27 10:15:15;;;;;;;8.77;7.88;;;5.70;99.90;;;;;;5070800;28;20605;-74
2021/11/27 10:17:45;;;;;;;8.05;7.28;;;5.80;99.90;;;;;;5073874;28;20250;-78
2021/11/27 10:20:17;;;;;;;9.90;7.70;;;5.80;99.90;;;;;;5063110;28;20191;-74
2021/11/27 10:22:54;;;;;;;11.60;9.23;;;5.70;99.90;;;;;;5070861;28;20956;-78
2021/11/27 10:25:34;;;;;;;9.32;7.00;;;5.70;99.90;;;;;;5063633;28;20649;-74
2021/11/27 10:28:05;;;;;;;9.45;8.05;;;5.70;99.90;;;;;;5050677;28;20638;-74
2021/11/27 10:30:45;;;;;;;8.95;8.02;;;5.70;99.90;;;;;;5067449;28;20235;-79
2021/11/27 10:33:12;;;;;;;9.43;8.52;;;5.80;99.90;;;;;;5067239;28;20216;-75
2021/11/27 10:35:55;;;;;;;8.48;7.63;;;5.80;99.90;;;;;;5074679;28;20258;-74
2021/11/27 10:38:34;;;;;;;7.85;7.05;;;5.70;99.90;;;;;;5068517;28;20235;-75
2021/11/27 10:41:01;;;;;;;10.10;6.05;;;5.70;99.90;;;;;;5062949;28;20327;-77
2021/11/27 10:43:28;;;;;;;9.10;7.75;;;5.60;99.90;;;;;;5064587;28;20290;-76
2021/11/27 10:45:55;;;;;;;9.40;7.32;;;5.60;99.90;;;;;;5069966;28;20219;-76
2021/11/27 10:48:24;;;;;;;7.55;6.93;;;5.60;99.90;;;;;;5058351;28;20587;-71
2021/11/27 10:50:55;;;;;;;9.07;8.10;;;5.60;99.90;;;;;;5067976;28;20298;-72
2021/11/27 10:53:36;;;;;;;9.68;8.68;;;5.50;99.90;;;;;;5064375;28;20202;-72
2021/11/27 10:56:07;;;;;;;8.70;7.63;;;5.50;99.90;;;;;;5059503;28;20222;-72
2021/11/27 10:58:59;;;;;;;7.35;6.65;;;5.60;99.90;;;;;;5059493;28;20244;-72
2021/11/27 11:01:26;;;;;;;8.95;7.07;;;5.60;99.90;;;;;;5058617;28;20207;-74
2021/11/27 11:03:53;;;;;;;8.18;7.32;;;5.50;99.90;;;;;;5060904;28;20648;-69
2021/11/27 11:06:24;;;;;;;8.75;7.20;;;5.60;99.90;;;;;;5067321;28;20220;-71
2021/11/27 11:08:52;;;;;;;9.80;8.77;;;5.70;99.90;;;;;;5065771;28;20209;-72
2021/11/27 11:11:26;;;;;;;21.27;14.43;;;5.70;99.90;;;;;;5060442;28;20203;-73
2021/11/27 11:13:55;;;;;;;8.20;7.25;;;5.70;99.90;;;;;;5070986;28;20720;-72
2021/11/27 11:16:24;;;;;;;10.00;9.10;;;5.70;99.90;;;;;;5070492;28;20314;-77
2021/11/27 11:18:53;;;;;;;9.90;8.18;;;5.80;99.90;;;;;;5072064;28;20199;-72
2021/11/27 11:21:23;;;;;;;9.63;7.35;;;5.80;99.90;;;;;;5068142;28;20246;-72
2021/11/27 11:23:50;;;;;;;8.40;7.57;;;5.80;99.90;;;;;;5070381;28;20309;-75
2021/11/27 11:26:20;;;;;;;16.67;9.02;;;5.90;99.90;;;;;;5068145;28;20195;-73
2021/11/27 11:28:55;;;;;;;8.68;7.78;;;5.90;99.90;;;;;;5069790;28;20566;-71
2021/11/27 11:31:25;;;;;;;9.15;8.25;;;5.90;99.90;;;;;;5067504;28;20618;-71
2021/11/27 11:33:55;;;;;;;12.25;8.80;;;6.00;99.90;;;;;;5047988;28;20650;-72
2021/11/27 11:36:24;;;;;;;8.35;7.20;;;5.90;99.90;;;;;;5045462;28;20230;-72
2021/11/27 11:38:53;;;;;;;8.27;7.30;;;6.00;99.90;;;;;;5047662;28;20343;-73
2021/11/27 11:41:23;;;;;;;7.55;6.75;;;6.20;99.90;;;;;;5045881;28;20843;-74
2021/11/27 11:43:51;;;;;;;8.32;7.43;;;6.10;99.90;;;;;;5047877;28;20239;-75
2021/11/27 11:46:18;;;;;;;7.97;7.18;;;6.20;99.90;;;;;;5047932;28;20761;-73
2021/11/27 11:48:50;;;;;;;7.97;7.18;;;6.20;99.90;;;;;;5049207;28;20739;-73
2021/11/27 11:51:34;;;;;;;9.07;6.60;;;6.30;99.90;;;;;;5047610;28;20219;-73
2021/11/27 11:54:02;;;;;;;9.93;7.60;;;6.20;99.90;;;;;;5048578;28;20239;-75
2021/11/27 11:56:36;;;;;;;7.82;7.03;;;6.20;99.90;;;;;;5047960;28;20746;-76
2021/11/27 11:59:20;;;;;;;10.35;9.25;;;6.20;99.90;;;;;;5048180;28;20208;-75
2021/11/27 12:02:16;;;;;;;9.25;7.78;;;6.30;99.90;;;;;;5047754;28;20750;-77
2021/11/27 12:05:15;;;;;;;8.25;7.43;;;6.30;99.90;;;;;;5049309;28;20909;-74
2021/11/27 12:07:53;;;;;;;10.60;8.43;;;6.30;99.90;;;;;;5049492;28;20232;-77
2021/11/27 12:10:21;;;;;;;9.82;7.40;;;6.30;99.90;;;;;;5049279;28;20217;-76
2021/11/27 12:13:19;;;;;;;10.52;8.27;;;6.30;99.90;;;;;;5049327;28;20212;-77
2021/11/27 12:15:47;;;;;;;9.52;8.27;;;6.30;99.90;;;;;;5046315;28;20321;-77
2021/11/27 12:18:17;;;;;;;8.07;7.28;;;6.30;99.90;;;;;;5047375;28;20307;-76
2021/11/27 12:20:47;;;;;;;9.05;8.13;;;6.30;99.90;;;;;;5046249;28;20243;-76
2021/11/27 12:23:42;;;;;;;9.70;8.30;;;6.20;99.90;;;;;;5047904;28;20243;-76
2021/11/27 12:26:30;;;;;;;11.93;10.73;;;6.20;99.90;;;;;;5048011;28;20223;-73
2021/11/27 12:29:12;;;;;;;10.20;9.20;;;6.20;99.90;;;;;;5046220;28;20362;-75
2021/11/27 12:31:50;;;;;;;11.02;9.82;;;6.20;99.90;;;;;;5041993;28;20220;-73
2021/11/27 12:34:33;;;;;;;10.85;9.55;;;6.30;99.90;;;;;;5045970;28;20259;-77
2021/11/27 12:37:00;;;;;;;12.38;10.43;;;6.30;99.90;;;;;;5043866;28;20238;-78
2021/11/27 12:39:39;;;;;;;10.48;9.07;;;6.30;99.90;;;;;;5047257;28;20223;-73
2021/11/27 12:42:22;;;;;;;9.93;8.30;;;6.30;99.90;;;;;;5044741;28;20292;-72
2021/11/27 12:44:52;;;;;;;11.38;10.27;;;6.30;99.90;;;;;;5044611;28;20229;-71
2021/11/27 12:47:42;;;;;;;11.60;10.23;;;6.20;99.90;;;;;;5046214;28;20213;-72
2021/11/27 12:50:20;;;;;;;12.05;10.27;;;6.30;99.90;;;;;;5045176;28;20326;-72